sensor_id;sensor_type;location;lat;lon;timestamp;temperature;humidity
76855;DHT22;66343;44.588;33.450;2023-01-29T00:01:11;7.96;74.89
76855;DHT22;66343;44.588;33.450;2023-01-29T00:04:08;8.01;75.27
76855;DHT22;66343;44.588;33.450;2023-01-29T00:06:36;8.00;76.34
76855;DHT22;66343;44.588;33.450;2023-01-29T00:09:14;7.94;77.23
76855;DHT22;66343;44.588;33.450;2023-01-29T00:11:56;7.90;77.81
76855;DHT22;66343;44.588;33.450;2023-01-29T00:14:42;7.85;79.15
76855;DHT22;66343;44.588;33.450;2023-01-29T00:17:40;7.81;80.16
76855;DHT22;66343;44.588;33.450;2023-01-29T00:20:32;7.77;80.81
76855;DHT22;66343;44.588;33.450;2023-01-29T00:23:27;7.78;82.23
76855;DHT22;66343;44.588;33.450;2023-01-29T00:26:03;7.71;83.23
76855;DHT22;66343;44.588;33.450;2023-01-29T00:28:39;7.67;84.49
76855;DHT22;66343;44.588;33.450;2023-01-29T00:31:36;7.68;85.30
76855;DHT22;66343;44.588;33.450;2023-01-29T00:34:29;7.70;85.51
76855;DHT22;66343;44.588;33.450;2023-01-29T00:36:59;7.69;86.01
76855;DHT22;66343;44.588;33.450;2023-01-29T00:39:34;7.72;85.38
76855;DHT22;66343;44.588;33.450;2023-01-29T00:42:11;7.75;85.66
76855;DHT22;66343;44.588;33.450;2023-01-29T00:45:24;7.79;84.83
76855;DHT22;66343;44.588;33.450;2023-01-29T00:48:20;7.82;84.42
76855;DHT22;66343;44.588;33.450;2023-01-29T00:51:07;7.84;83.67
76855;DHT22;66343;44.588;33.450;2023-01-29T00:53:49;7.90;83.79
76855;DHT22;66343;44.588;33.450;2023-01-29T00:56:35;7.92;83.87
76855;DHT22;66343;44.588;33.450;2023-01-29T00:59:23;7.97;83.85
76855;DHT22;66343;44.588;33.450;2023-01-29T01:02:17;7.98;84.00
76855;DHT22;66343;44.588;33.450;2023-01-29T01:05:16;8.04;84.34
76855;DHT22;66343;44.588;33.450;2023-01-29T01:08:05;8.06;84.71
76855;DHT22;66343;44.588;33.450;2023-01-29T01:11:18;8.05;85.19
76855;DHT22;66343;44.588;33.450;2023-01-29T01:14:15;8.11;85.45
76855;DHT22;66343;44.588;33.450;2023-01-29T01:17:01;8.15;85.51
76855;DHT22;66343;44.588;33.450;2023-01-29T01:19:45;8.20;85.74
76855;DHT22;66343;44.588;33.450;2023-01-29T01:22:17;8.20;86.00
76855;DHT22;66343;44.588;33.450;2023-01-29T01:24:47;8.22;85.99
76855;DHT22;66343;44.588;33.450;2023-01-29T01:27:33;8.26;86.09
76855;DHT22;66343;44.588;33.450;2023-01-29T01:30:28;8.31;86.06
76855;DHT22;66343;44.588;33.450;2023-01-29T01:33:24;8.31;86.29
76855;DHT22;66343;44.588;33.450;2023-01-29T01:36:09;8.33;86.38
76855;DHT22;66343;44.588;33.450;2023-01-29T01:38:55;8.39;86.17
76855;DHT22;66343;44.588;33.450;2023-01-29T01:41:43;8.43;86.43
76855;DHT22;66343;44.588;33.450;2023-01-29T01:44:54;8.45;86.47
76855;DHT22;66343;44.588;33.450;2023-01-29T01:47:42;8.50;86.75
76855;DHT22;66343;44.588;33.450;2023-01-29T01:51:01;8.51;87.14
76855;DHT22;66343;44.588;33.450;2023-01-29T01:53:49;8.52;87.49
76855;DHT22;66343;44.588;33.450;2023-01-29T01:56:51;8.53;86.62
76855;DHT22;66343;44.588;33.450;2023-01-29T01:59:34;8.57;86.80
76855;DHT22;66343;44.588;33.450;2023-01-29T02:02:30;8.59;86.48
76855;DHT22;66343;44.588;33.450;2023-01-29T02:05:48;8.66;86.16
76855;DHT22;66343;44.588;33.450;2023-01-29T02:08:59;8.67;84.31
76855;DHT22;66343;44.588;33.450;2023-01-29T02:12:11;8.73;83.45
76855;DHT22;66343;44.588;33.450;2023-01-29T02:15:00;8.76;83.32
76855;DHT22;66343;44.588;33.450;2023-01-29T02:17:45;8.79;83.28
76855;DHT22;66343;44.588;33.450;2023-01-29T02:20:32;8.80;83.07
76855;DHT22;66343;44.588;33.450;2023-01-29T02:27:21;8.89;81.99
76855;DHT22;66343;44.588;33.450;2023-01-29T02:30:01;8.92;83.12
76855;DHT22;66343;44.588;33.450;2023-01-29T02:33:03;8.90;82.75
76855;DHT22;66343;44.588;33.450;2023-01-29T02:36:25;8.87;84.16
76855;DHT22;66343;44.588;33.450;2023-01-29T02:43:00;8.85;85.06
76855;DHT22;66343;44.588;33.450;2023-01-29T02:45:52;8.86;85.19
76855;DHT22;66343;44.588;33.450;2023-01-29T02:57:43;8.95;83.79
76855;DHT22;66343;44.588;33.450;2023-01-29T03:11:22;8.94;81.87
76855;DHT22;66343;44.588;33.450;2023-01-29T03:14:22;8.92;82.08
76855;DHT22;66343;44.588;33.450;2023-01-29T03:17:13;8.91;81.81
76855;DHT22;66343;44.588;33.450;2023-01-29T03:19:59;8.87;82.07
76855;DHT22;66343;44.588;33.450;2023-01-29T03:22:58;8.87;81.97
76855;DHT22;66343;44.588;33.450;2023-01-29T03:25:43;8.90;81.24
76855;DHT22;66343;44.588;33.450;2023-01-29T03:28:51;8.87;80.60
76855;DHT22;66343;44.588;33.450;2023-01-29T03:31:58;8.85;80.41
76855;DHT22;66343;44.588;33.450;2023-01-29T03:34:57;8.82;79.99
76855;DHT22;66343;44.588;33.450;2023-01-29T03:37:47;8.81;80.42
76855;DHT22;66343;44.588;33.450;2023-01-29T03:40:52;8.79;80.52
76855;DHT22;66343;44.588;33.450;2023-01-29T03:47:13;8.71;81.11
76855;DHT22;66343;44.588;33.450;2023-01-29T03:50:09;8.65;81.57
76855;DHT22;66343;44.588;33.450;2023-01-29T03:53:27;8.61;81.86
76855;DHT22;66343;44.588;33.450;2023-01-29T03:56:53;8.62;81.89
76855;DHT22;66343;44.588;33.450;2023-01-29T04:00:01;8.61;82.19
76855;DHT22;66343;44.588;33.450;2023-01-29T04:06:15;8.62;82.45
76855;DHT22;66343;44.588;33.450;2023-01-29T04:09:23;8.62;82.82
76855;DHT22;66343;44.588;33.450;2023-01-29T04:12:36;8.58;82.71
76855;DHT22;66343;44.588;33.450;2023-01-29T04:15:35;8.56;82.86
76855;DHT22;66343;44.588;33.450;2023-01-29T04:18:50;8.53;83.29
76855;DHT22;66343;44.588;33.450;2023-01-29T04:21:52;8.53;83.25
76855;DHT22;66343;44.588;33.450;2023-01-29T04:24:24;8.53;82.65
76855;DHT22;66343;44.588;33.450;2023-01-29T04:27:34;8.53;83.00
76855;DHT22;66343;44.588;33.450;2023-01-29T04:30:29;8.50;83.49
76855;DHT22;66343;44.588;33.450;2023-01-29T04:33:06;8.50;84.22
76855;DHT22;66343;44.588;33.450;2023-01-29T04:36:51;8.51;84.69
76855;DHT22;66343;44.588;33.450;2023-01-29T04:39:53;8.47;84.91
76855;DHT22;66343;44.588;33.450;2023-01-29T04:42:42;8.41;84.39
76855;DHT22;66343;44.588;33.450;2023-01-29T04:45:54;8.36;84.78
76855;DHT22;66343;44.588;33.450;2023-01-29T04:48:59;8.36;85.07
76855;DHT22;66343;44.588;33.450;2023-01-29T04:55:04;8.36;83.58
76855;DHT22;66343;44.588;33.450;2023-01-29T04:58:23;8.33;84.10
76855;DHT22;66343;44.588;33.450;2023-01-29T05:01:10;8.34;83.31
76855;DHT22;66343;44.588;33.450;2023-01-29T05:03:56;8.30;83.20
76855;DHT22;66343;44.588;33.450;2023-01-29T05:06:40;8.26;82.62
76855;DHT22;66343;44.588;33.450;2023-01-29T05:09:34;8.15;83.20
76855;DHT22;66343;44.588;33.450;2023-01-29T05:12:24;8.19;82.76
76855;DHT22;66343;44.588;33.450;2023-01-29T05:15:15;8.16;82.63
76855;DHT22;66343;44.588;33.450;2023-01-29T05:17:58;8.15;82.94
76855;DHT22;66343;44.588;33.450;2023-01-29T05:20:44;8.12;82.86
76855;DHT22;66343;44.588;33.450;2023-01-29T05:23:35;8.12;81.81
76855;DHT22;66343;44.588;33.450;2023-01-29T05:26:04;8.15;81.04
76855;DHT22;66343;44.588;33.450;2023-01-29T05:28:35;8.19;81.39
76855;DHT22;66343;44.588;33.450;2023-01-29T05:31:04;8.19;81.03
76855;DHT22;66343;44.588;33.450;2023-01-29T05:33:35;8.18;81.23
76855;DHT22;66343;44.588;33.450;2023-01-29T05:36:29;8.18;80.08
76855;DHT22;66343;44.588;33.450;2023-01-29T05:39:22;8.16;79.04
76855;DHT22;66343;44.588;33.450;2023-01-29T05:41:51;8.16;78.92
76855;DHT22;66343;44.588;33.450;2023-01-29T05:44:34;8.17;78.74
76855;DHT22;66343;44.588;33.450;2023-01-29T05:47:20;8.14;79.25
76855;DHT22;66343;44.588;33.450;2023-01-29T05:50:04;8.11;79.56
76855;DHT22;66343;44.588;33.450;2023-01-29T05:52:54;8.11;79.60
76855;DHT22;66343;44.588;33.450;2023-01-29T05:55:44;8.15;79.98
76855;DHT22;66343;44.588;33.450;2023-01-29T05:58:31;8.06;80.15
76855;DHT22;66343;44.588;33.450;2023-01-29T06:01:17;8.11;79.82
76855;DHT22;66343;44.588;33.450;2023-01-29T06:04:10;8.14;79.50
76855;DHT22;66343;44.588;33.450;2023-01-29T06:06:52;8.07;78.50
76855;DHT22;66343;44.588;33.450;2023-01-29T06:09:42;8.02;77.95
76855;DHT22;66343;44.588;33.450;2023-01-29T06:12:36;8.04;78.69
76855;DHT22;66343;44.588;33.450;2023-01-29T06:15:29;8.11;78.70
76855;DHT22;66343;44.588;33.450;2023-01-29T06:18:21;8.12;78.65
76855;DHT22;66343;44.588;33.450;2023-01-29T06:21:15;8.06;78.92
76855;DHT22;66343;44.588;33.450;2023-01-29T06:23:47;8.06;79.04
76855;DHT22;66343;44.588;33.450;2023-01-29T06:26:15;8.09;78.53
76855;DHT22;66343;44.588;33.450;2023-01-29T06:28:53;8.06;78.77
76855;DHT22;66343;44.588;33.450;2023-01-29T06:31:29;8.05;78.06
76855;DHT22;66343;44.588;33.450;2023-01-29T06:33:59;8.04;78.50
76855;DHT22;66343;44.588;33.450;2023-01-29T06:36:29;7.98;78.24
76855;DHT22;66343;44.588;33.450;2023-01-29T06:39:18;7.96;76.30
76855;DHT22;66343;44.588;33.450;2023-01-29T06:42:13;7.92;76.65
76855;DHT22;66343;44.588;33.450;2023-01-29T06:44:41;7.88;77.31
76855;DHT22;66343;44.588;33.450;2023-01-29T06:47:28;7.83;77.62
76855;DHT22;66343;44.588;33.450;2023-01-29T06:50:14;7.74;76.77
76855;DHT22;66343;44.588;33.450;2023-01-29T06:53:00;7.73;77.56
76855;DHT22;66343;44.588;33.450;2023-01-29T06:55:53;7.76;77.80
76855;DHT22;66343;44.588;33.450;2023-01-29T06:58:41;7.72;77.74
76855;DHT22;66343;44.588;33.450;2023-01-29T07:01:38;7.65;78.59
76855;DHT22;66343;44.588;33.450;2023-01-29T07:04:09;7.65;78.61
76855;DHT22;66343;44.588;33.450;2023-01-29T07:06:42;7.67;78.65
76855;DHT22;66343;44.588;33.450;2023-01-29T07:09:31;7.72;77.77
76855;DHT22;66343;44.588;33.450;2023-01-29T07:12:19;7.65;77.78
76855;DHT22;66343;44.588;33.450;2023-01-29T07:15:06;7.60;77.72
76855;DHT22;66343;44.588;33.450;2023-01-29T07:21:03;7.59;77.50
76855;DHT22;66343;44.588;33.450;2023-01-29T07:23:56;7.57;77.92
76855;DHT22;66343;44.588;33.450;2023-01-29T07:26:46;7.54;77.92
76855;DHT22;66343;44.588;33.450;2023-01-29T07:29:35;7.49;77.02
76855;DHT22;66343;44.588;33.450;2023-01-29T07:32:20;7.47;76.70
76855;DHT22;66343;44.588;33.450;2023-01-29T07:35:07;7.37;77.15
76855;DHT22;66343;44.588;33.450;2023-01-29T07:37:57;7.27;77.69
76855;DHT22;66343;44.588;33.450;2023-01-29T07:40:47;7.25;77.16
76855;DHT22;66343;44.588;33.450;2023-01-29T07:43:30;7.29;77.21
76855;DHT22;66343;44.588;33.450;2023-01-29T07:46:15;7.32;77.33
76855;DHT22;66343;44.588;33.450;2023-01-29T07:49:06;7.27;76.21
76855;DHT22;66343;44.588;33.450;2023-01-29T07:51:59;7.29;77.35
76855;DHT22;66343;44.588;33.450;2023-01-29T07:54:42;7.28;76.83
76855;DHT22;66343;44.588;33.450;2023-01-29T07:57:30;7.27;77.50
76855;DHT22;66343;44.588;33.450;2023-01-29T08:00:17;7.30;77.93
76855;DHT22;66343;44.588;33.450;2023-01-29T08:03:09;7.29;77.20
76855;DHT22;66343;44.588;33.450;2023-01-29T08:05:53;7.30;76.74
76855;DHT22;66343;44.588;33.450;2023-01-29T08:08:49;7.29;76.35
76855;DHT22;66343;44.588;33.450;2023-01-29T08:11:36;7.25;76.54
76855;DHT22;66343;44.588;33.450;2023-01-29T08:14:32;7.25;76.12
76855;DHT22;66343;44.588;33.450;2023-01-29T08:17:24;7.25;75.70
76855;DHT22;66343;44.588;33.450;2023-01-29T08:20:14;7.27;76.24
76855;DHT22;66343;44.588;33.450;2023-01-29T08:33:50;7.22;74.52
76855;DHT22;66343;44.588;33.450;2023-01-29T08:36:33;7.17;75.16
76855;DHT22;66343;44.588;33.450;2023-01-29T08:39:27;7.16;74.76
76855;DHT22;66343;44.588;33.450;2023-01-29T08:42:22;7.15;76.06
76855;DHT22;66343;44.588;33.450;2023-01-29T08:44:57;7.14;76.48
76855;DHT22;66343;44.588;33.450;2023-01-29T08:47:50;7.17;76.49
76855;DHT22;66343;44.588;33.450;2023-01-29T08:50:38;7.26;76.10
76855;DHT22;66343;44.588;33.450;2023-01-29T08:53:21;7.18;75.05
76855;DHT22;66343;44.588;33.450;2023-01-29T08:55:53;7.12;74.38
76855;DHT22;66343;44.588;33.450;2023-01-29T08:58:24;7.15;74.97
76855;DHT22;66343;44.588;33.450;2023-01-29T09:00:53;7.13;74.33
76855;DHT22;66343;44.588;33.450;2023-01-29T09:03:39;7.10;75.49
76855;DHT22;66343;44.588;33.450;2023-01-29T09:06:39;7.09;75.38
76855;DHT22;66343;44.588;33.450;2023-01-29T09:09:32;7.05;74.71
76855;DHT22;66343;44.588;33.450;2023-01-29T09:12:15;7.04;75.65
76855;DHT22;66343;44.588;33.450;2023-01-29T09:15:09;7.07;75.15
76855;DHT22;66343;44.588;33.450;2023-01-29T09:17:56;7.04;75.39
76855;DHT22;66343;44.588;33.450;2023-01-29T09:20:41;7.05;75.50
76855;DHT22;66343;44.588;33.450;2023-01-29T09:23:28;7.07;75.78
76855;DHT22;66343;44.588;33.450;2023-01-29T09:26:17;6.99;75.18
76855;DHT22;66343;44.588;33.450;2023-01-29T09:29:10;6.91;74.84
76855;DHT22;66343;44.588;33.450;2023-01-29T09:32:03;6.94;75.14
76855;DHT22;66343;44.588;33.450;2023-01-29T09:34:47;6.93;75.89
76855;DHT22;66343;44.588;33.450;2023-01-29T09:37:30;6.89;75.47
76855;DHT22;66343;44.588;33.450;2023-01-29T09:40:32;6.88;76.44
76855;DHT22;66343;44.588;33.450;2023-01-29T09:43:53;6.85;76.12
76855;DHT22;66343;44.588;33.450;2023-01-29T09:46:43;6.74;76.35
76855;DHT22;66343;44.588;33.450;2023-01-29T09:49:38;6.67;76.93
76855;DHT22;66343;44.588;33.450;2023-01-29T09:52:29;6.65;77.40
76855;DHT22;66343;44.588;33.450;2023-01-29T09:55:30;6.66;76.98
76855;DHT22;66343;44.588;33.450;2023-01-29T09:58:30;6.58;77.91
76855;DHT22;66343;44.588;33.450;2023-01-29T10:05:14;6.65;77.55
76855;DHT22;66343;44.588;33.450;2023-01-29T10:13:26;6.60;81.84
76855;DHT22;66343;44.588;33.450;2023-01-29T10:22:54;6.60;82.77
76855;DHT22;66343;44.588;33.450;2023-01-29T10:25:47;6.60;82.20
76855;DHT22;66343;44.588;33.450;2023-01-29T10:28:44;6.64;81.47
76855;DHT22;66343;44.588;33.450;2023-01-29T10:31:39;6.65;82.42
76855;DHT22;66343;44.588;33.450;2023-01-29T10:34:29;6.60;83.15
76855;DHT22;66343;44.588;33.450;2023-01-29T10:37:29;6.57;82.39
76855;DHT22;66343;44.588;33.450;2023-01-29T10:40:40;6.68;83.13
76855;DHT22;66343;44.588;33.450;2023-01-29T10:46:46;6.63;80.98
76855;DHT22;66343;44.588;33.450;2023-01-29T10:49:45;6.71;81.29
76855;DHT22;66343;44.588;33.450;2023-01-29T10:58:57;6.67;79.95
76855;DHT22;66343;44.588;33.450;2023-01-29T11:01:44;6.70;79.77
76855;DHT22;66343;44.588;33.450;2023-01-29T11:04:35;6.71;79.60
76855;DHT22;66343;44.588;33.450;2023-01-29T11:07:31;6.69;79.29
76855;DHT22;66343;44.588;33.450;2023-01-29T11:10:16;6.71;79.69
76855;DHT22;66343;44.588;33.450;2023-01-29T11:13:01;6.71;80.38
76855;DHT22;66343;44.588;33.450;2023-01-29T11:15:58;6.71;80.36
76855;DHT22;66343;44.588;33.450;2023-01-29T11:18:57;6.68;81.05
76855;DHT22;66343;44.588;33.450;2023-01-29T11:22:02;6.66;81.52
76855;DHT22;66343;44.588;33.450;2023-01-29T11:25:05;6.66;81.94
76855;DHT22;66343;44.588;33.450;2023-01-29T11:27:52;6.69;81.30
76855;DHT22;66343;44.588;33.450;2023-01-29T11:30:38;6.72;80.81
76855;DHT22;66343;44.588;33.450;2023-01-29T11:33:25;6.75;81.46
76855;DHT22;66343;44.588;33.450;2023-01-29T11:36:30;6.69;80.17
76855;DHT22;66343;44.588;33.450;2023-01-29T11:39:23;6.64;80.29
76855;DHT22;66343;44.588;33.450;2023-01-29T11:42:20;6.61;80.37
76855;DHT22;66343;44.588;33.450;2023-01-29T11:45:10;6.61;80.07
76855;DHT22;66343;44.588;33.450;2023-01-29T11:48:19;6.55;81.30
76855;DHT22;66343;44.588;33.450;2023-01-29T11:51:19;6.51;82.24
76855;DHT22;66343;44.588;33.450;2023-01-29T11:54:05;6.54;83.08
76855;DHT22;66343;44.588;33.450;2023-01-29T11:56:55;6.55;82.62
76855;DHT22;66343;44.588;33.450;2023-01-29T11:59:45;6.57;82.18
76855;DHT22;66343;44.588;33.450;2023-01-29T12:02:41;6.53;82.91
76855;DHT22;66343;44.588;33.450;2023-01-29T12:05:16;6.53;81.46
76855;DHT22;66343;44.588;33.450;2023-01-29T12:08:09;6.52;80.74
76855;DHT22;66343;44.588;33.450;2023-01-29T12:11:29;6.56;79.98
76855;DHT22;66343;44.588;33.450;2023-01-29T12:14:33;6.49;80.01
76855;DHT22;66343;44.588;33.450;2023-01-29T12:17:20;6.51;79.86
76855;DHT22;66343;44.588;33.450;2023-01-29T12:20:19;6.51;79.19
76855;DHT22;66343;44.588;33.450;2023-01-29T12:26:16;6.64;77.88
76855;DHT22;66343;44.588;33.450;2023-01-29T12:29:23;6.59;77.41
76855;DHT22;66343;44.588;33.450;2023-01-29T12:35:14;6.39;77.09
76855;DHT22;66343;44.588;33.450;2023-01-29T12:41:05;6.38;78.75
76855;DHT22;66343;44.588;33.450;2023-01-29T12:44:01;6.31;78.76
76855;DHT22;66343;44.588;33.450;2023-01-29T12:46:52;6.30;79.25
76855;DHT22;66343;44.588;33.450;2023-01-29T12:49:47;6.24;79.24
76855;DHT22;66343;44.588;33.450;2023-01-29T12:52:39;6.11;79.98
76855;DHT22;66343;44.588;33.450;2023-01-29T12:56:01;6.11;78.97
76855;DHT22;66343;44.588;33.450;2023-01-29T12:58:58;6.00;79.54
76855;DHT22;66343;44.588;33.450;2023-01-29T13:01:44;5.96;80.08
76855;DHT22;66343;44.588;33.450;2023-01-29T13:04:44;5.94;80.73
76855;DHT22;66343;44.588;33.450;2023-01-29T13:07:42;5.96;81.56
76855;DHT22;66343;44.588;33.450;2023-01-29T13:10:42;5.94;80.93
76855;DHT22;66343;44.588;33.450;2023-01-29T13:16:32;5.81;81.58
76855;DHT22;66343;44.588;33.450;2023-01-29T13:19:32;5.84;82.45
76855;DHT22;66343;44.588;33.450;2023-01-29T13:22:26;5.81;81.58
76855;DHT22;66343;44.588;33.450;2023-01-29T13:25:20;5.80;82.13
76855;DHT22;66343;44.588;33.450;2023-01-29T13:28:19;5.71;81.58
76855;DHT22;66343;44.588;33.450;2023-01-29T13:34:19;5.65;82.48
76855;DHT22;66343;44.588;33.450;2023-01-29T13:37:26;5.64;82.13
76855;DHT22;66343;44.588;33.450;2023-01-29T13:40:19;5.68;82.65
76855;DHT22;66343;44.588;33.450;2023-01-29T13:42:56;5.63;81.83
76855;DHT22;66343;44.588;33.450;2023-01-29T13:45:52;5.62;82.00
76855;DHT22;66343;44.588;33.450;2023-01-29T13:48:45;5.65;82.22
76855;DHT22;66343;44.588;33.450;2023-01-29T13:51:37;5.56;82.50
76855;DHT22;66343;44.588;33.450;2023-01-29T13:54:26;5.55;82.04
76855;DHT22;66343;44.588;33.450;2023-01-29T14:06:37;5.59;81.34
76855;DHT22;66343;44.588;33.450;2023-01-29T14:12:31;5.55;80.23
76855;DHT22;66343;44.588;33.450;2023-01-29T14:15:15;5.51;80.94
76855;DHT22;66343;44.588;33.450;2023-01-29T14:17:57;5.54;81.04
76855;DHT22;66343;44.588;33.450;2023-01-29T14:20:52;5.52;81.20
76855;DHT22;66343;44.588;33.450;2023-01-29T14:23:30;5.64;81.68
76855;DHT22;66343;44.588;33.450;2023-01-29T14:26:43;5.78;80.30
76855;DHT22;66343;44.588;33.450;2023-01-29T14:29:27;5.79;79.82
76855;DHT22;66343;44.588;33.450;2023-01-29T14:32:23;5.76;79.60
76855;DHT22;66343;44.588;33.450;2023-01-29T14:35:24;5.82;79.21
76855;DHT22;66343;44.588;33.450;2023-01-29T14:38:19;5.85;79.50
76855;DHT22;66343;44.588;33.450;2023-01-29T14:41:28;5.80;79.03
76855;DHT22;66343;44.588;33.450;2023-01-29T14:53:24;5.61;79.36
76855;DHT22;66343;44.588;33.450;2023-01-29T14:56:02;5.55;80.50
76855;DHT22;66343;44.588;33.450;2023-01-29T15:02:00;5.51;80.35
76855;DHT22;66343;44.588;33.450;2023-01-29T15:05:06;5.51;79.95
76855;DHT22;66343;44.588;33.450;2023-01-29T15:07:55;5.51;80.15
76855;DHT22;66343;44.588;33.450;2023-01-29T15:10:52;5.47;80.28
76855;DHT22;66343;44.588;33.450;2023-01-29T15:14:17;5.48;80.49
76855;DHT22;66343;44.588;33.450;2023-01-29T15:17:29;5.51;79.86
76855;DHT22;66343;44.588;33.450;2023-01-29T15:20:30;5.26;79.91
76855;DHT22;66343;44.588;33.450;2023-01-29T15:23:41;5.36;80.78
76855;DHT22;66343;44.588;33.450;2023-01-29T15:26:18;5.23;79.64
76855;DHT22;66343;44.588;33.450;2023-01-29T15:28:55;5.13;81.02
76855;DHT22;66343;44.588;33.450;2023-01-29T15:31:39;5.18;80.85
76855;DHT22;66343;44.588;33.450;2023-01-29T15:34:28;5.31;80.80
76855;DHT22;66343;44.588;33.450;2023-01-29T15:37:32;5.30;80.32
76855;DHT22;66343;44.588;33.450;2023-01-29T15:40:21;5.32;80.06
76855;DHT22;66343;44.588;33.450;2023-01-29T15:43:28;5.33;80.24
76855;DHT22;66343;44.588;33.450;2023-01-29T15:46:29;5.35;79.91
76855;DHT22;66343;44.588;33.450;2023-01-29T15:49:22;5.38;79.82
76855;DHT22;66343;44.588;33.450;2023-01-29T15:52:21;5.40;79.51
76855;DHT22;66343;44.588;33.450;2023-01-29T15:55:06;5.39;79.69
76855;DHT22;66343;44.588;33.450;2023-01-29T15:57:52;5.32;79.44
76855;DHT22;66343;44.588;33.450;2023-01-29T16:00:38;5.33;79.71
76855;DHT22;66343;44.588;33.450;2023-01-29T16:03:27;5.31;80.03
76855;DHT22;66343;44.588;33.450;2023-01-29T16:06:17;5.27;79.95
76855;DHT22;66343;44.588;33.450;2023-01-29T16:09:14;5.21;80.10
76855;DHT22;66343;44.588;33.450;2023-01-29T16:11:55;5.21;80.00
76855;DHT22;66343;44.588;33.450;2023-01-29T16:14:51;5.21;79.70
76855;DHT22;66343;44.588;33.450;2023-01-29T16:17:46;5.20;80.25
76855;DHT22;66343;44.588;33.450;2023-01-29T16:23:03;5.15;80.71
76855;DHT22;66343;44.588;33.450;2023-01-29T16:25:35;5.15;80.60
76855;DHT22;66343;44.588;33.450;2023-01-29T16:28:06;5.07;80.51
76855;DHT22;66343;44.588;33.450;2023-01-29T16:30:40;5.06;80.94
76855;DHT22;66343;44.588;33.450;2023-01-29T16:33:14;5.05;80.88
76855;DHT22;66343;44.588;33.450;2023-01-29T16:35:50;5.06;79.98
76855;DHT22;66343;44.588;33.450;2023-01-29T16:38:34;5.00;80.72
76855;DHT22;66343;44.588;33.450;2023-01-29T16:44:31;5.08;79.49
76855;DHT22;66343;44.588;33.450;2023-01-29T16:47:33;5.07;80.44
76855;DHT22;66343;44.588;33.450;2023-01-29T16:50:32;5.10;80.19
76855;DHT22;66343;44.588;33.450;2023-01-29T16:53:23;5.10;80.24
76855;DHT22;66343;44.588;33.450;2023-01-29T16:56:17;5.03;79.75
76855;DHT22;66343;44.588;33.450;2023-01-29T16:59:31;4.94;79.93
76855;DHT22;66343;44.588;33.450;2023-01-29T17:05:26;4.82;81.19
76855;DHT22;66343;44.588;33.450;2023-01-29T17:08:24;4.86;80.88
76855;DHT22;66343;44.588;33.450;2023-01-29T17:11:11;4.86;81.01
76855;DHT22;66343;44.588;33.450;2023-01-29T17:14:10;4.81;81.23
76855;DHT22;66343;44.588;33.450;2023-01-29T17:17:15;4.77;81.08
76855;DHT22;66343;44.588;33.450;2023-01-29T17:20:12;4.66;81.37
76855;DHT22;66343;44.588;33.450;2023-01-29T17:22:56;4.62;82.94
76855;DHT22;66343;44.588;33.450;2023-01-29T17:25:39;4.62;82.79
76855;DHT22;66343;44.588;33.450;2023-01-29T17:28:32;4.56;81.91
76855;DHT22;66343;44.588;33.450;2023-01-29T17:31:22;4.50;82.14
76855;DHT22;66343;44.588;33.450;2023-01-29T17:34:10;4.50;81.88
76855;DHT22;66343;44.588;33.450;2023-01-29T17:36:56;4.47;81.59
76855;DHT22;66343;44.588;33.450;2023-01-29T17:39:28;4.49;81.57
76855;DHT22;66343;44.588;33.450;2023-01-29T17:42:17;4.53;81.78
76855;DHT22;66343;44.588;33.450;2023-01-29T17:45:10;4.56;81.72
76855;DHT22;66343;44.588;33.450;2023-01-29T17:48:08;4.59;82.02
76855;DHT22;66343;44.588;33.450;2023-01-29T17:51:01;4.59;79.82
76855;DHT22;66343;44.588;33.450;2023-01-29T17:53:45;4.61;79.82
76855;DHT22;66343;44.588;33.450;2023-01-29T17:56:31;4.64;79.86
76855;DHT22;66343;44.588;33.450;2023-01-29T17:59:30;4.64;79.67
76855;DHT22;66343;44.588;33.450;2023-01-29T18:02:15;4.62;79.08
76855;DHT22;66343;44.588;33.450;2023-01-29T18:05:06;4.53;79.72
76855;DHT22;66343;44.588;33.450;2023-01-29T18:07:50;4.41;80.50
76855;DHT22;66343;44.588;33.450;2023-01-29T18:10:39;4.37;81.30
76855;DHT22;66343;44.588;33.450;2023-01-29T18:13:30;4.41;81.36
76855;DHT22;66343;44.588;33.450;2023-01-29T18:16:26;4.45;81.02
76855;DHT22;66343;44.588;33.450;2023-01-29T18:19:23;4.33;80.90
76855;DHT22;66343;44.588;33.450;2023-01-29T18:22:17;4.27;81.74
76855;DHT22;66343;44.588;33.450;2023-01-29T18:25:04;4.26;82.33
76855;DHT22;66343;44.588;33.450;2023-01-29T18:27:50;4.33;82.78
76855;DHT22;66343;44.588;33.450;2023-01-29T18:30:42;4.42;82.55
76855;DHT22;66343;44.588;33.450;2023-01-29T18:33:34;4.45;81.78
76855;DHT22;66343;44.588;33.450;2023-01-29T18:36:17;4.41;80.84
76855;DHT22;66343;44.588;33.450;2023-01-29T18:39:18;4.39;81.24
76855;DHT22;66343;44.588;33.450;2023-01-29T18:42:11;4.36;81.66
76855;DHT22;66343;44.588;33.450;2023-01-29T18:45:02;4.32;82.20
76855;DHT22;66343;44.588;33.450;2023-01-29T18:48:04;4.34;81.66
76855;DHT22;66343;44.588;33.450;2023-01-29T18:50:58;4.32;81.83
76855;DHT22;66343;44.588;33.450;2023-01-29T18:53:29;4.28;82.07
76855;DHT22;66343;44.588;33.450;2023-01-29T18:56:00;4.21;82.21
76855;DHT22;66343;44.588;33.450;2023-01-29T18:58:33;4.22;82.84
76855;DHT22;66343;44.588;33.450;2023-01-29T19:01:04;4.23;82.29
76855;DHT22;66343;44.588;33.450;2023-01-29T19:03:44;4.22;82.24
76855;DHT22;66343;44.588;33.450;2023-01-29T19:06:13;4.23;82.78
76855;DHT22;66343;44.588;33.450;2023-01-29T19:08:45;4.22;82.61
76855;DHT22;66343;44.588;33.450;2023-01-29T19:11:38;4.27;82.90
76855;DHT22;66343;44.588;33.450;2023-01-29T19:14:36;4.26;82.99
76855;DHT22;66343;44.588;33.450;2023-01-29T19:17:12;4.26;82.52
76855;DHT22;66343;44.588;33.450;2023-01-29T19:20:08;4.32;83.31
76855;DHT22;66343;44.588;33.450;2023-01-29T19:23:00;4.36;82.81
76855;DHT22;66343;44.588;33.450;2023-01-29T19:25:46;4.36;82.26
76855;DHT22;66343;44.588;33.450;2023-01-29T19:28:33;4.33;82.36
76855;DHT22;66343;44.588;33.450;2023-01-29T19:31:29;4.29;82.34
76855;DHT22;66343;44.588;33.450;2023-01-29T19:34:13;4.29;82.36
76855;DHT22;66343;44.588;33.450;2023-01-29T19:36:59;4.29;82.67
76855;DHT22;66343;44.588;33.450;2023-01-29T19:39:58;4.24;82.47
76855;DHT22;66343;44.588;33.450;2023-01-29T19:42:28;4.31;83.00
76855;DHT22;66343;44.588;33.450;2023-01-29T19:44:58;4.30;82.75
76855;DHT22;66343;44.588;33.450;2023-01-29T19:47:37;4.37;82.77
76855;DHT22;66343;44.588;33.450;2023-01-29T19:50:11;4.38;81.23
76855;DHT22;66343;44.588;33.450;2023-01-29T19:52:39;4.44;81.03
76855;DHT22;66343;44.588;33.450;2023-01-29T19:55:07;4.41;80.90
76855;DHT22;66343;44.588;33.450;2023-01-29T19:57:53;4.37;81.16
76855;DHT22;66343;44.588;33.450;2023-01-29T20:00:39;4.30;81.10
76855;DHT22;66343;44.588;33.450;2023-01-29T20:03:24;4.27;81.62